タヒチ島 の空港の天気 - METARとTAF

タヒチ・ファアア国際空港 ( NTAA / PPT ) - フランス領ポリネシア タヒチ島
飛行場実況気象(Metar)
観測時間05/28 01:00 TAHT (05/28 11:00 UTC)
風向・風速南東 2m/s
視程10km以上
天気現象
少しの雲 雲底高度 700m
気温24℃
湿度74%
気圧1015hPa
METARNTAA 281100Z 14004KT 090V170 9999 FEW023 24/19 Q1015 NOSIG
過去の天気等 Google飛行場航空写真 Wunderground天気予報

過去48時間のMETAR

飛行場予報(TAF)
発表時間: 5/28 01:00 TAHT (5/28 11:00 UTC)
予報対象時間: 28日2時 TAHT ~ 29日8時 TAHT
風向・風速不定 2m/s
視程10km以上
少しの雲 雲底高度 700m
28日9時 TAHT ~ 28日11時 TAHT に徐々に
風向・風速北東 8m/s
28日16時 TAHT ~ 28日18時 TAHT に徐々に
風向・風速不定 2m/s
TAF NTAA 281100Z 2812/2918 VRB03KT 9999 FEW023
BECMG 2819/2821 04015KT
BECMG 2902/2904 VRB03KT